Time;durP1;ratioP1;P1;durP2;ratioP2;P2;SDS_P1;SDS_P2;PMS_P1;PMS_P2;Temp;Humidity;BMP_temperature;BMP_pressure;BME280_temperature;BME280_humidity;BME280_pressure;Samples;Min_cycle;Max_cycle;Signal;HPM_P1;HPM_P2
2021/10/18 00:01:48;;;;;;;42.35;29.55;;;9.60;99.90;;;10.66;86.73;98524.06;5201802;28;20297;-60
2021/10/18 00:04:21;;;;;;;40.55;29.00;;;9.60;99.90;;;10.65;86.47;98527.41;5198856;28;20250;-61
2021/10/18 00:06:54;;;;;;;41.70;30.02;;;9.50;99.90;;;10.65;87.05;98529.97;5200262;28;20289;-61
2021/10/18 00:09:27;;;;;;;37.63;27.95;;;9.60;99.90;;;10.69;86.85;98526.81;5210644;28;20284;-63
2021/10/18 00:12:00;;;;;;;41.58;29.75;;;9.50;99.90;;;10.64;87.14;98528.16;5209040;28;20229;-60
2021/10/18 00:14:35;;;;;;;40.25;28.67;;;9.60;99.90;;;10.63;86.60;98526.41;5209015;28;20263;-64
2021/10/18 00:17:08;;;;;;;44.28;29.63;;;9.60;99.90;;;10.63;86.78;98526.41;5202413;28;20206;-62
2021/10/18 00:19:41;;;;;;;42.70;29.25;;;9.60;99.90;;;10.60;87.23;98524.53;5212628;28;20281;-62
2021/10/18 00:22:14;;;;;;;38.80;28.40;;;9.60;99.90;;;10.63;87.25;98531.53;5205394;28;20288;-62
2021/10/18 00:24:47;;;;;;;43.42;30.15;;;9.60;99.90;;;10.57;87.13;98534.53;5203819;28;20288;-61
2021/10/18 00:27:20;;;;;;;42.90;30.50;;;9.60;99.90;;;10.53;86.78;98534.22;5205537;28;20208;-62
2021/10/18 00:29:55;;;;;;;42.63;30.85;;;9.60;99.90;;;10.59;86.70;98538.09;5208797;28;20868;-59
2021/10/18 00:32:28;;;;;;;39.45;29.10;;;9.60;99.90;;;10.60;86.90;98546.66;5204591;28;20201;-58
2021/10/18 00:35:01;;;;;;;39.90;29.08;;;9.60;99.90;;;10.66;87.45;98554.72;5205630;28;20656;-62
2021/10/18 00:37:34;;;;;;;39.85;28.27;;;9.60;99.90;;;10.67;86.76;98556.50;5212176;28;20301;-62
2021/10/18 00:40:09;;;;;;;39.80;28.90;;;9.60;99.90;;;10.69;87.06;98566.84;5217745;28;20222;-62
2021/10/18 00:42:43;;;;;;;34.80;26.58;;;9.60;99.90;;;10.68;85.83;98565.97;5211666;28;20245;-62
2021/10/18 00:45:18;;;;;;;33.72;26.52;;;9.60;99.90;;;10.67;84.95;98574.38;5200458;28;20289;-61
2021/10/18 00:47:51;;;;;;;36.40;27.95;;;9.50;99.90;;;10.57;85.09;98572.00;5202010;28;20251;-59
2021/10/18 00:50:24;;;;;;;30.23;24.90;;;9.50;99.90;;;10.46;85.86;98565.28;5207454;28;20360;-60
2021/10/18 00:53:00;;;;;;;32.55;26.25;;;9.50;99.90;;;10.45;85.90;98559.28;5217641;28;20248;-64
2021/10/18 00:55:33;;;;;;;38.00;28.27;;;9.50;99.90;;;10.41;85.80;98570.06;5203932;28;20213;-62
2021/10/18 00:58:07;;;;;;;32.60;25.77;;;9.40;99.90;;;10.34;85.44;98563.63;5211731;28;20289;-64
2021/10/18 01:00:42;;;;;;;34.13;26.63;;;9.40;99.90;;;10.33;85.76;98577.22;5211044;28;20252;-59
2021/10/18 01:03:16;;;;;;;32.50;24.35;;;9.40;99.90;;;10.34;86.45;98573.88;5205068;28;20233;-60
2021/10/18 01:05:50;;;;;;;34.30;25.58;;;9.40;99.90;;;10.36;85.50;98568.88;5205788;28;20233;-59
2021/10/18 01:08:23;;;;;;;32.05;24.38;;;9.40;99.90;;;10.36;85.60;98572.31;5211418;28;20248;-60
2021/10/18 01:10:56;;;;;;;30.92;23.67;;;9.40;99.90;;;10.44;85.82;98570.25;5211693;28;20659;-60
2021/10/18 01:13:29;;;;;;;30.70;24.88;;;9.40;99.90;;;10.45;84.65;98568.63;5200460;28;20220;-58
2021/10/18 01:16:06;;;;;;;30.92;24.02;;;9.30;99.90;;;10.37;85.66;98563.84;5202558;28;20634;-58
2021/10/18 01:18:39;;;;;;;29.02;23.02;;;9.40;99.90;;;10.44;85.14;98569.38;5207529;28;20646;-62
2021/10/18 01:21:13;;;;;;;32.38;25.02;;;9.30;99.90;;;10.37;84.59;98565.53;5205905;28;20201;-62
2021/10/18 01:23:46;;;;;;;31.55;24.35;;;9.30;99.90;;;10.41;84.56;98572.59;5205740;28;20316;-62
2021/10/18 01:26:20;;;;;;;30.63;24.88;;;9.40;99.90;;;10.41;84.49;98564.06;5212382;28;20289;-63
2021/10/18 01:28:53;;;;;;;30.30;24.35;;;9.40;99.90;;;10.38;84.58;98565.63;5212535;28;20305;-61
2021/10/18 01:31:26;;;;;;;27.25;22.40;;;9.40;99.90;;;10.35;84.81;98575.63;5206732;28;20245;-62
2021/10/18 01:33:59;;;;;;;26.70;21.65;;;9.40;99.90;;;10.31;84.55;98573.66;5207902;28;20608;-60
2021/10/18 01:36:34;;;;;;;30.45;23.90;;;9.30;99.90;;;10.30;84.40;98561.66;5205458;28;20194;-61
2021/10/18 01:39:07;;;;;;;26.45;22.00;;;9.30;99.90;;;10.29;84.88;98559.88;5207865;28;20728;-63
2021/10/18 01:41:41;;;;;;;27.77;24.45;;;9.30;99.90;;;10.28;84.19;98558.09;5217268;28;20233;-62
2021/10/18 01:44:14;;;;;;;26.40;22.73;;;9.30;99.90;;;10.34;84.98;98548.31;5205861;28;20218;-62
2021/10/18 01:46:47;;;;;;;27.23;22.98;;;9.40;99.90;;;10.39;84.23;98546.09;5203047;28;20198;-62
2021/10/18 01:49:20;;;;;;;27.58;22.70;;;9.40;99.90;;;10.43;84.46;98554.84;5206794;28;20237;-62
2021/10/18 01:51:55;;;;;;;25.65;21.45;;;9.40;99.90;;;10.35;83.70;98557.72;5208078;28;20225;-60
2021/10/18 01:54:28;;;;;;;25.73;21.45;;;9.40;99.90;;;10.35;83.67;98565.41;5207139;28;20287;-63
2021/10/18 01:57:01;;;;;;;29.23;23.60;;;9.40;99.90;;;10.38;82.69;98555.38;5211962;28;20241;-61
2021/10/18 01:59:34;;;;;;;27.98;23.15;;;9.40;99.90;;;10.37;83.72;98563.84;5208173;28;20204;-64
2021/10/18 02:02:07;;;;;;;27.92;22.85;;;9.40;99.90;;;10.37;82.68;98561.28;5210612;28;20294;-61
2021/10/18 02:05:00;;;;;;;27.67;24.08;;;9.40;99.90;;;10.32;82.97;98569.41;5206592;28;20205;-62
2021/10/18 02:07:34;;;;;;;26.35;21.60;;;9.30;99.90;;;10.30;83.13;98565.88;5212385;28;20240;-62
2021/10/18 02:10:08;;;;;;;25.77;22.98;;;9.40;99.90;;;10.33;82.61;98577.22;5207680;28;20194;-62
2021/10/18 02:12:42;;;;;;;29.55;23.63;;;9.40;99.90;;;10.25;83.30;98573.19;5205890;28;20222;-61
2021/10/18 02:15:15;;;;;;;24.98;20.98;;;9.40;99.90;;;10.26;84.04;98574.97;5203510;28;20205;-57
2021/10/18 02:17:48;;;;;;;28.35;24.17;;;9.30;99.90;;;10.21;83.94;98571.19;5205565;28;20207;-56
2021/10/18 02:20:21;;;;;;;27.30;23.67;;;9.40;99.90;;;10.20;85.04;98569.44;5204546;28;20202;-60
2021/10/18 02:22:56;;;;;;;29.23;23.45;;;9.40;99.90;;;10.22;84.30;98565.31;5212008;28;20224;-63
2021/10/18 02:25:29;;;;;;;29.90;23.80;;;9.30;99.90;;;10.23;84.70;98564.53;5213885;28;20627;-64
2021/10/18 02:28:03;;;;;;;26.50;23.30;;;9.30;99.90;;;10.23;85.02;98564.53;5221007;28;20289;-60
2021/10/18 02:30:38;;;;;;;27.70;22.63;;;9.30;99.90;;;10.23;84.45;98568.75;5203904;28;20297;-61
2021/10/18 02:33:11;;;;;;;26.05;22.13;;;9.30;99.90;;;10.27;84.25;98566.56;5210900;28;20313;-60
2021/10/18 02:35:44;;;;;;;23.77;21.27;;;9.30;99.90;;;10.31;84.61;98568.53;5204731;28;20697;-58
2021/10/18 02:38:18;;;;;;;29.23;23.58;;;9.30;99.90;;;10.33;83.97;98561.88;5204356;28;20194;-60
2021/10/18 02:40:51;;;;;;;30.02;24.27;;;9.30;99.90;;;10.25;84.98;98560.41;5203847;28;20205;-60
2021/10/18 02:43:24;;;;;;;27.05;22.33;;;9.30;99.90;;;10.24;85.31;98561.19;5205385;28;20751;-61
2021/10/18 02:45:57;;;;;;;25.27;21.00;;;9.30;99.90;;;10.26;84.41;98557.06;5200263;28;20244;-60
2021/10/18 02:48:30;;;;;;;23.48;20.42;;;9.30;99.90;;;10.31;84.57;98560.88;5203934;28;20202;-60
2021/10/18 02:51:04;;;;;;;23.92;20.92;;;9.40;99.90;;;10.24;84.41;98561.19;5205218;28;20236;-62
2021/10/18 02:53:38;;;;;;;26.20;22.00;;;9.40;99.90;;;10.21;84.70;98568.63;5204154;28;20415;-58
2021/10/18 02:56:11;;;;;;;22.80;19.00;;;9.30;99.90;;;10.23;82.68;98564.53;5205291;28;20211;-61
2021/10/18 02:58:44;;;;;;;23.77;20.30;;;9.30;99.90;;;10.21;83.18;98566.06;5205547;28;20288;-59
2021/10/18 03:01:17;;;;;;;23.58;20.27;;;9.30;99.90;;;10.18;82.96;98565.88;5206258;28;20256;-64
2021/10/18 03:03:50;;;;;;;22.38;19.98;;;9.30;99.90;;;10.20;82.01;98569.44;5209669;28;20602;-59
2021/10/18 03:06:24;;;;;;;26.15;20.77;;;9.30;99.90;;;10.19;83.20;98567.66;5212353;28;20261;-63
2021/10/18 03:08:59;;;;;;;26.27;21.55;;;9.30;99.90;;;10.20;83.41;98573.66;5208300;28;20198;-60
2021/10/18 03:11:32;;;;;;;24.50;20.38;;;9.30;99.90;;;10.20;84.19;98568.53;5205810;28;20566;-60
2021/10/18 03:14:05;;;;;;;26.42;20.85;;;9.30;99.90;;;10.21;83.52;98567.75;5203312;28;20218;-61
2021/10/18 03:16:38;;;;;;;25.02;20.52;;;9.30;99.90;;;10.24;83.67;98571.41;5203031;28;20194;-64
2021/10/18 03:19:12;;;;;;;24.67;21.33;;;9.40;99.90;;;10.28;83.95;98586.22;5210769;28;20237;-60
2021/10/18 03:21:45;;;;;;;24.17;20.33;;;9.30;99.90;;;10.28;83.96;98575.13;5199397;28;20198;-62
2021/10/18 03:24:19;;;;;;;26.52;21.52;;;9.40;99.90;;;10.18;84.76;98576.09;5203202;28;20600;-59
2021/10/18 03:26:53;;;;;;;26.88;23.38;;;9.30;99.90;;;10.17;83.65;98578.56;5206146;28;20476;-59
2021/10/18 03:29:27;;;;;;;24.05;20.40;;;9.30;99.90;;;10.10;83.92;98582.31;5206443;28;20198;-64
2021/10/18 03:32:00;;;;;;;24.17;20.40;;;9.20;99.90;;;10.06;83.79;98590.56;5210840;28;20321;-59
2021/10/18 03:34:33;;;;;;;23.80;20.05;;;9.20;99.90;;;10.08;83.39;98589.88;5201397;28;20234;-57
2021/10/18 03:37:06;;;;;;;22.42;19.92;;;9.20;99.90;;;10.12;83.16;98601.19;5203493;28;20563;-60
2021/10/18 03:39:40;;;;;;;24.13;20.40;;;9.20;99.90;;;10.12;83.60;98608.88;5203286;28;20300;-58
2021/10/18 03:42:13;;;;;;;26.40;20.60;;;9.30;99.90;;;10.13;84.17;98603.00;5204529;28;20864;-60
2021/10/18 03:44:46;;;;;;;22.15;19.50;;;9.30;99.90;;;10.10;83.22;98595.09;5201922;28;20218;-59
2021/10/18 03:47:19;;;;;;;22.85;19.58;;;9.30;99.90;;;10.15;83.00;98601.41;5203882;28;20658;-59
2021/10/18 03:49:53;;;;;;;24.00;20.05;;;9.30;99.90;;;10.19;83.02;98598.31;5204118;28;20293;-62
2021/10/18 03:52:26;;;;;;;30.00;24.50;;;9.30;99.90;;;10.12;83.44;98606.31;5204559;28;20218;-58
2021/10/18 03:55:00;;;;;;;24.58;21.63;;;9.30;99.90;;;10.11;83.06;98609.66;5202979;28;20210;-58
2021/10/18 03:57:33;;;;;;;24.83;22.00;;;9.20;99.90;;;10.11;82.29;98614.75;5203420;28;20201;-56
2021/10/18 04:00:09;;;;;;;27.92;22.27;;;9.20;99.90;;;10.07;83.00;98612.75;5203305;28;20208;-60
2021/10/18 04:02:42;;;;;;;26.05;22.30;;;9.20;99.90;;;10.04;83.19;98617.66;5199090;28;20582;-59
2021/10/18 04:05:15;;;;;;;29.63;24.90;;;9.10;99.90;;;10.02;83.51;98622.66;5200425;28;20252;-58
2021/10/18 04:07:49;;;;;;;28.23;23.23;;;9.10;99.90;;;9.99;85.07;98613.91;5209440;28;20652;-58
2021/10/18 04:10:23;;;;;;;23.65;20.73;;;9.20;99.90;;;9.99;84.82;98609.69;5200226;28;20210;-59
2021/10/18 04:12:56;;;;;;;25.67;22.23;;;9.10;99.90;;;10.07;84.12;98613.66;5203025;28;20225;-59
2021/10/18 04:15:29;;;;;;;25.42;20.52;;;9.20;99.90;;;10.10;83.61;98629.22;5201612;28;20208;-59
2021/10/18 04:18:02;;;;;;;26.10;21.15;;;9.20;99.90;;;10.09;84.59;98621.41;5203368;28;20241;-58
2021/10/18 04:20:40;;;;;;;27.77;21.77;;;9.20;99.90;;;10.08;84.41;98629.88;5196867;28;20603;-59
2021/10/18 04:23:13;;;;;;;25.92;20.63;;;9.20;99.90;;;10.09;84.53;98636.75;5204389;28;20335;-58
2021/10/18 04:25:47;;;;;;;27.63;21.27;;;9.30;99.90;;;10.07;84.89;98646.88;5207914;28;20224;-61
2021/10/18 04:28:20;;;;;;;23.98;19.73;;;9.20;99.90;;;10.11;84.96;98638.63;5206979;28;20665;-61
2021/10/18 04:30:53;;;;;;;22.63;19.70;;;9.20;99.90;;;10.14;84.29;98632.88;5202553;28;20593;-59
2021/10/18 04:33:27;;;;;;;25.50;21.45;;;9.30;99.90;;;10.15;83.87;98634.63;5200533;28;20316;-61
2021/10/18 04:36:00;;;;;;;25.40;21.58;;;9.30;99.90;;;10.15;84.09;98638.06;5201656;28;20206;-62
2021/10/18 04:38:33;;;;;;;22.95;19.73;;;9.30;99.90;;;10.12;85.00;98637.84;5202759;28;20215;-59
2021/10/18 04:41:08;;;;;;;22.02;19.73;;;9.20;99.90;;;10.12;84.26;98648.06;5207798;28;20202;-58
2021/10/18 04:43:41;;;;;;;24.65;20.35;;;9.30;99.90;;;10.11;83.54;98650.53;5207010;28;20220;-61
2021/10/18 04:46:14;;;;;;;21.35;17.73;;;9.20;99.90;;;10.07;83.62;98643.41;5203041;28;20210;-58
2021/10/18 04:48:47;;;;;;;20.65;18.52;;;9.20;99.90;;;10.07;83.42;98648.50;5205974;28;20294;-59
2021/10/18 04:51:20;;;;;;;20.42;18.13;;;9.20;99.90;;;10.10;84.10;98653.84;5207636;28;20277;-61
2021/10/18 04:53:53;;;;;;;20.02;17.45;;;9.20;99.90;;;10.09;84.89;98641.84;5205047;28;20401;-59
2021/10/18 04:56:28;;;;;;;20.88;18.13;;;9.20;99.90;;;10.11;84.40;98641.19;5208321;28;20707;-61
2021/10/18 04:59:01;;;;;;;21.27;17.80;;;9.20;99.90;;;10.08;84.34;98632.44;5207358;28;20284;-59
2021/10/18 05:01:34;;;;;;;20.10;17.02;;;9.20;99.90;;;10.07;83.35;98638.28;5207539;28;20238;-60
2021/10/18 05:04:07;;;;;;;21.27;18.23;;;9.20;99.90;;;10.05;84.22;98634.75;5205068;28;20236;-62
2021/10/18 05:06:40;;;;;;;25.23;21.63;;;9.10;99.90;;;10.08;84.08;98640.09;5208254;28;20871;-61
2021/10/18 05:09:13;;;;;;;23.90;21.35;;;9.20;99.90;;;10.03;84.08;98641.41;5207130;28;20204;-61
2021/10/18 05:11:48;;;;;;;23.98;20.73;;;9.10;99.90;;;9.95;84.98;98642.53;5208662;28;20578;-61
2021/10/18 05:14:22;;;;;;;22.38;18.77;;;9.10;99.90;;;9.99;84.19;98654.75;5209092;28;20288;-60
2021/10/18 05:16:55;;;;;;;21.98;18.85;;;9.10;99.90;;;10.05;84.26;98656.09;5217530;28;20240;-63
2021/10/18 05:19:30;;;;;;;22.23;19.52;;;9.20;99.90;;;10.07;84.88;98658.72;5215976;28;20206;-64
2021/10/18 05:22:04;;;;;;;24.17;19.25;;;9.20;99.90;;;10.08;84.21;98660.53;5221517;28;20248;-61
2021/10/18 05:24:38;;;;;;;21.90;19.38;;;9.20;99.90;;;10.06;83.84;98668.06;5220782;28;20218;-63
2021/10/18 05:27:12;;;;;;;23.15;19.65;;;9.20;99.90;;;10.06;83.81;98673.16;5222356;28;20210;-62
2021/10/18 05:29:46;;;;;;;20.42;18.27;;;9.20;99.90;;;10.07;84.44;98680.06;5222821;28;20204;-63
2021/10/18 05:32:20;;;;;;;21.05;17.77;;;9.20;99.90;;;10.10;83.59;98679.38;5212308;28;20197;-59
2021/10/18 05:34:53;;;;;;;21.15;18.35;;;9.20;99.90;;;10.13;84.21;98684.75;5206463;28;20206;-61
2021/10/18 05:37:26;;;;;;;23.60;19.52;;;9.20;99.90;;;10.12;83.68;98685.50;5201081;28;20198;-60
2021/10/18 05:39:59;;;;;;;24.63;20.48;;;9.20;99.90;;;10.12;83.63;98688.06;5204479;28;20569;-60
2021/10/18 05:42:33;;;;;;;21.25;19.00;;;9.20;99.90;;;10.04;84.20;98681.50;5205837;28;20221;-60
2021/10/18 05:45:08;;;;;;;21.90;18.55;;;9.10;99.90;;;10.01;83.50;98689.81;5208436;28;20194;-61
2021/10/18 05:47:56;;;;;;;21.90;19.52;;;9.10;99.90;;;10.01;83.04;98684.72;5204618;28;20230;-61
2021/10/18 05:50:33;;;;;;;21.80;19.27;;;9.10;99.90;;;9.99;83.65;98685.41;5209496;28;20568;-61
2021/10/18 05:53:07;;;;;;;22.27;19.17;;;9.10;99.90;;;10.02;83.67;98690.75;5208802;28;20218;-61
2021/10/18 05:55:40;;;;;;;21.40;19.10;;;9.10;99.90;;;10.06;83.92;98687.63;5206842;28;20226;-60
2021/10/18 05:58:15;;;;;;;24.20;20.08;;;9.10;99.90;;;9.98;83.56;98687.06;5206159;28;20197;-60
2021/10/18 06:00:48;;;;;;;26.02;21.02;;;9.00;99.90;;;9.91;83.51;98688.28;5205502;28;20288;-59
2021/10/18 06:03:21;;;;;;;24.00;20.10;;;9.00;99.90;;;9.91;84.23;98697.63;5205741;28;20251;-58
2021/10/18 06:05:54;;;;;;;21.83;18.92;;;9.00;99.90;;;9.92;83.52;98687.50;5204207;28;20213;-60
2021/10/18 06:08:49;;;;;;;24.33;20.45;;;9.00;99.90;;;9.88;84.12;98695.72;5203464;28;20210;-55
2021/10/18 06:11:22;;;;;;;25.00;21.10;;;9.00;99.90;;;9.91;85.01;98698.50;5205005;28;20225;-60
2021/10/18 06:13:56;;;;;;;26.77;21.65;;;9.10;99.90;;;9.95;84.39;98701.28;5207144;28;20236;-60
2021/10/18 06:16:30;;;;;;;22.20;18.77;;;9.10;99.90;;;9.98;85.38;98709.16;5199949;28;20288;-61
2021/10/18 06:19:03;;;;;;;25.58;21.30;;;9.10;99.90;;;9.99;84.61;98705.84;5207757;28;20202;-60
2021/10/18 06:21:36;;;;;;;26.33;21.30;;;9.10;99.90;;;10.01;84.01;98719.59;5201120;28;20277;-60
2021/10/18 06:24:09;;;;;;;23.90;21.20;;;9.10;99.90;;;10.03;84.41;98723.16;5201697;28;20214;-60
2021/10/18 06:26:42;;;;;;;22.25;19.85;;;9.20;99.90;;;10.08;84.83;98729.50;5205674;28;20205;-63
2021/10/18 06:29:17;;;;;;;22.08;18.63;;;9.20;99.90;;;10.07;83.83;98725.13;5206645;28;20215;-60
2021/10/18 06:31:50;;;;;;;23.42;19.95;;;9.20;99.90;;;10.08;85.39;98720.16;5205716;28;20194;-61
2021/10/18 06:34:23;;;;;;;23.10;20.35;;;9.20;99.90;;;10.13;85.10;98720.50;5209286;28;20225;-59
2021/10/18 06:36:56;;;;;;;28.15;24.10;;;9.20;99.90;;;10.12;83.66;98723.81;5204951;28;20289;-61
2021/10/18 06:39:29;;;;;;;27.20;22.83;;;9.20;99.90;;;10.09;83.11;98723.59;5212577;28;20236;-61
2021/10/18 06:42:02;;;;;;;26.83;21.55;;;9.20;99.90;;;10.09;84.02;98724.47;5207905;28;20307;-59
2021/10/18 06:44:37;;;;;;;27.05;22.98;;;9.20;99.90;;;10.09;83.29;98728.69;5205279;28;20264;-58
2021/10/18 06:47:11;;;;;;;29.85;24.25;;;9.20;99.90;;;10.10;83.96;98733.94;5202946;28;20288;-60
2021/10/18 06:49:44;;;;;;;26.20;22.40;;;9.20;99.90;;;10.07;82.90;98749.03;5201222;28;20662;-61
2021/10/18 06:52:17;;;;;;;26.40;21.48;;;9.20;99.90;;;10.14;83.42;98747.81;5208666;28;20300;-60
2021/10/18 06:54:50;;;;;;;27.13;22.45;;;9.20;99.90;;;10.09;82.88;98750.03;5212138;28;20571;-61
2021/10/18 06:57:23;;;;;;;26.67;22.23;;;9.20;99.90;;;10.12;82.75;98755.34;5206397;28;20284;-60
2021/10/18 07:00:00;;;;;;;28.05;22.45;;;9.30;99.90;;;10.13;82.57;98753.72;5204454;28;20205;-59
2021/10/18 07:02:33;;;;;;;24.92;20.63;;;9.20;99.90;;;10.18;80.72;98757.47;5204766;28;20280;-60
2021/10/18 07:05:07;;;;;;;27.38;21.67;;;9.20;99.90;;;10.06;82.27;98764.25;5205770;28;20666;-60
2021/10/18 07:07:40;;;;;;;25.02;21.13;;;9.10;99.90;;;10.01;81.20;98766.44;5205911;28;20218;-60
2021/10/18 07:10:14;;;;;;;26.05;22.20;;;9.10;99.90;;;10.03;81.87;98770.00;5205137;28;20673;-58
2021/10/18 07:12:47;;;;;;;27.17;22.77;;;9.00;99.90;;;9.99;82.16;98775.69;5204710;28;20213;-60
2021/10/18 07:15:22;;;;;;;25.73;21.85;;;9.10;99.90;;;10.02;81.55;98777.56;5204777;28;20222;-60
2021/10/18 07:17:58;;;;;;;29.40;22.58;;;9.10;99.90;;;10.03;81.26;98782.78;5206107;28;20688;-61
2021/10/18 07:20:32;;;;;;;24.23;20.73;;;9.20;99.90;;;10.04;82.01;98788.78;5205874;28;20217;-60
2021/10/18 07:23:08;;;;;;;26.60;21.55;;;9.20;99.90;;;10.11;82.56;98798.69;5208217;28;20213;-58
2021/10/18 07:25:43;;;;;;;25.58;22.45;;;9.20;99.90;;;10.18;82.26;98795.78;5207115;28;20203;-60
2021/10/18 07:28:16;;;;;;;28.15;22.92;;;9.30;99.90;;;10.03;81.50;98805.75;5204891;28;20205;-60
2021/10/18 07:30:52;;;;;;;25.52;22.20;;;9.20;99.90;;;10.17;80.85;98798.25;5206753;28;20198;-60
2021/10/18 07:33:25;;;;;;;24.83;21.33;;;9.30;99.90;;;10.07;81.40;98799.22;5209791;28;20697;-62
2021/10/18 07:36:07;;;;;;;25.60;21.10;;;9.30;99.90;;;10.12;80.64;98797.91;5206851;28;20215;-58
2021/10/18 07:38:40;;;;;;;24.98;20.83;;;9.30;99.90;;;10.17;80.58;98801.69;5205259;28;20208;-58
2021/10/18 07:41:14;;;;;;;24.98;21.00;;;9.30;99.90;;;10.20;80.80;98801.03;5202453;28;20230;-59
2021/10/18 07:43:48;;;;;;;23.92;20.58;;;9.30;99.90;;;10.13;80.18;98803.13;5205739;28;20220;-59
2021/10/18 07:46:23;;;;;;;25.30;20.55;;;9.20;99.90;;;10.20;81.18;98793.34;5208915;28;20289;-60
2021/10/18 07:48:56;;;;;;;27.50;23.83;;;9.30;99.90;;;10.13;80.61;98792.03;5206679;28;20546;-61
2021/10/18 07:51:29;;;;;;;27.30;23.00;;;9.30;99.90;;;10.24;80.41;98790.25;5209829;28;20272;-59
2021/10/18 07:54:03;;;;;;;26.75;23.63;;;9.30;99.90;;;10.55;79.21;98790.84;5210258;28;20237;-61
2021/10/18 07:56:36;;;;;;;25.60;22.73;;;9.40;99.90;;;10.46;78.45;98790.19;5205468;28;20303;-59
2021/10/18 07:59:09;;;;;;;25.48;21.73;;;9.60;99.90;;;10.32;78.99;98797.72;5205031;28;20709;-59
2021/10/18 08:01:43;;;;;;;28.38;23.23;;;9.50;99.90;;;10.22;78.82;98802.91;5206740;28;20212;-59
2021/10/18 08:04:17;;;;;;;30.38;22.38;;;9.40;99.90;;;10.21;80.78;98802.78;5206087;28;20279;-61
2021/10/18 08:06:50;;;;;;;26.98;22.58;;;9.40;99.90;;;10.25;81.46;98798.03;5211783;28;20217;-59
2021/10/18 08:09:25;;;;;;;26.60;22.27;;;9.40;99.90;;;10.52;77.80;98793.16;5207652;28;20207;-61
2021/10/18 08:11:58;;;;;;;30.35;23.60;;;9.50;99.90;;;10.41;79.02;98804.28;5205657;28;20208;-60
2021/10/18 08:14:31;;;;;;;28.42;23.65;;;9.40;99.90;;;10.59;77.71;98805.63;5209904;28;20226;-60
2021/10/18 08:17:06;;;;;;;27.65;22.50;;;9.70;99.90;;;10.33;79.22;98802.06;5209210;28;20297;-60
2021/10/18 08:19:39;;;;;;;29.25;23.70;;;9.50;99.90;;;10.28;79.58;98811.06;5206820;28;20670;-59
2021/10/18 08:22:12;;;;;;;28.05;21.73;;;9.50;99.90;;;10.23;79.99;98808.91;5208647;28;20671;-59
2021/10/18 08:24:45;;;;;;;22.67;20.00;;;9.40;99.90;;;10.26;78.70;98812.56;5209145;28;20217;-59
2021/10/18 08:27:18;;;;;;;24.77;20.15;;;9.30;99.90;;;10.30;79.40;98814.63;5209146;28;20212;-58
2021/10/18 08:29:51;;;;;;;27.48;20.35;;;9.40;99.90;;;10.50;77.30;98804.94;5215361;28;20237;-56
2021/10/18 08:32:26;;;;;;;26.77;20.67;;;9.50;99.90;;;10.42;78.43;98816.31;5204426;28;20206;-59
2021/10/18 08:34:59;;;;;;;24.90;19.40;;;9.50;99.90;;;10.47;77.97;98814.94;5215305;28;20244;-58
2021/10/18 08:40:21;;;;;;;24.33;19.35;;;9.50;99.90;;;10.37;78.52;98814.28;5208319;28;20205;-59
2021/10/18 08:42:58;;;;;;;22.67;18.23;;;9.40;99.90;;;10.34;78.40;98819.16;5201744;28;20227;-59
2021/10/18 08:45:32;;;;;;;21.80;18.35;;;9.40;99.90;;;10.28;79.48;98816.16;5209256;28;20190;-58
2021/10/18 08:48:10;;;;;;;24.30;19.67;;;9.40;99.90;;;10.19;79.29;98812.91;5204571;28;20680;-60
2021/10/18 08:50:43;;;;;;;22.35;18.33;;;9.30;99.90;;;10.23;79.52;98806.34;5209262;28;20281;-57
2021/10/18 08:53:16;;;;;;;20.20;16.52;;;9.40;99.90;;;10.22;79.91;98812.25;5213026;28;20305;-60
2021/10/18 08:55:49;;;;;;;20.23;16.65;;;9.40;99.90;;;10.34;80.58;98810.63;5208363;28;20224;-59
2021/10/18 08:58:23;;;;;;;19.00;16.23;;;9.50;99.90;;;10.54;78.50;98812.06;5215351;28;20657;-57
2021/10/18 09:00:56;;;;;;;16.50;14.00;;;9.70;99.90;;;10.53;78.47;98808.63;5209761;28;20728;-60
2021/10/18 09:03:33;;;;;;;16.77;13.70;;;9.60;99.90;;;10.52;78.17;98809.38;5207794;28;20252;-58
2021/10/18 09:06:16;;;;;;;20.55;15.10;;;9.60;99.90;;;10.70;76.95;98807.28;5213574;28;20200;-58
2021/10/18 09:08:51;;;;;;;17.88;14.63;;;9.80;99.90;;;10.73;77.52;98814.28;5207515;28;20198;-60
2021/10/18 09:11:27;;;;;;;18.60;15.18;;;9.90;99.90;;;10.60;78.09;98804.84;5207971;28;20292;-57
2021/10/18 09:14:03;;;;;;;18.30;14.10;;;9.70;99.90;;;10.76;77.43;98820.50;5208757;28;20709;-57
2021/10/18 09:16:38;;;;;;;22.75;19.83;;;9.80;99.90;;;10.75;77.27;98822.94;5208427;28;20776;-59
2021/10/18 09:19:15;;;;;;;23.42;17.98;;;9.80;99.90;;;10.60;76.85;98823.63;5212576;28;20209;-60
2021/10/18 09:21:50;;;;;;;21.20;17.95;;;9.60;99.90;;;10.61;77.35;98829.63;5210229;28;20194;-60
2021/10/18 09:24:41;;;;;;;22.33;17.77;;;9.70;99.90;;;10.72;78.45;98832.97;5207856;28;20316;-59
2021/10/18 09:27:18;;;;;;;19.60;15.63;;;9.70;99.90;;;10.75;77.73;98828.94;5205495;28;20623;-59
2021/10/18 09:29:52;;;;;;;19.42;16.25;;;9.80;99.90;;;10.87;77.93;98836.59;5211209;28;20197;-58
2021/10/18 09:32:30;;;;;;;20.23;16.50;;;9.90;99.90;;;10.87;77.96;98833.16;5206984;28;20204;-56
2021/10/18 09:35:12;;;;;;;18.00;14.20;;;10.00;99.90;;;10.90;77.29;98833.38;5206554;28;20312;-61
2021/10/18 09:37:46;;;;;;;19.75;16.38;;;10.00;99.90;;;11.10;75.95;98833.13;5204127;28;20376;-60
2021/10/18 09:40:33;;;;;;;18.80;14.77;;;10.10;99.90;;;10.91;76.78;98830.06;5215561;28;20291;-58
2021/10/18 09:43:11;;;;;;;19.17;13.63;;;10.10;99.90;;;10.95;76.21;98834.59;5205984;28;20226;-58
2021/10/18 09:46:07;;;;;;;18.00;14.48;;;10.10;99.90;;;11.04;76.55;98833.59;5207995;28;20194;-59
2021/10/18 10:51:58;;;;;;;16.83;13.95;;;11.90;99.90;;;12.66;70.80;98770.16;5225270;28;20193;-59
2021/10/18 10:54:39;;;;;;;14.60;12.77;;;11.90;99.90;;;12.48;71.23;98764.75;5225998;28;20205;-55
2021/10/18 10:57:13;;;;;;;16.05;13.27;;;11.70;99.90;;;12.67;71.52;98751.41;5224976;28;20321;-55
2021/10/18 10:59:54;;;;;;;14.30;12.45;;;11.90;99.90;;;12.83;71.86;98756.72;5214653;28;20344;-53
2021/10/18 11:02:30;;;;;;;16.13;14.43;;;12.20;99.90;;;12.87;70.31;98761.22;5199684;28;20218;-57
2021/10/18 11:05:04;;;;;;;15.32;12.82;;;12.20;99.90;;;13.00;70.38;98756.06;5205327;28;20220;-53
2021/10/18 11:07:53;;;;;;;14.25;12.77;;;12.30;99.90;;;12.91;70.56;98758.09;5204585;28;20248;-52
2021/10/18 11:10:27;;;;;;;15.18;12.93;;;12.20;99.90;;;12.96;71.53;98758.34;5200669;28;20239;-57
2021/10/18 11:13:09;;;;;;;15.77;12.52;;;12.30;99.90;;;13.19;69.71;98757.19;5202421;28;20224;-55
2021/10/18 11:15:43;;;;;;;13.50;12.10;;;12.50;99.90;;;13.03;69.46;98753.69;5205102;28;20210;-55
2021/10/18 11:18:24;;;;;;;14.98;13.32;;;12.40;99.90;;;13.18;69.21;98765.69;5204423;28;20232;-54
2021/10/18 11:20:57;;;;;;;13.98;12.52;;;12.40;99.90;;;13.06;69.52;98764.16;5204962;28;20301;-56
2021/10/18 11:23:30;;;;;;;15.15;12.63;;;12.30;99.90;;;13.14;70.13;98761.19;5203891;28;20553;-55
2021/10/18 11:26:04;;;;;;;13.20;11.65;;;12.40;99.90;;;13.31;69.96;98765.69;5199962;28;20190;-55
2021/10/18 11:28:37;;;;;;;12.23;11.02;;;12.60;99.90;;;13.44;68.91;98757.03;5203965;28;20297;-55
2021/10/18 11:31:12;;;;;;;14.25;12.43;;;12.80;99.90;;;13.56;69.80;98764.59;5201119;28;20733;-54
2021/10/18 11:34:01;;;;;;;15.73;13.02;;;12.90;99.90;;;13.74;68.90;98758.00;5204394;28;20197;-55
2021/10/18 11:36:36;;;;;;;14.38;12.90;;;12.90;99.90;;;13.72;68.13;98757.00;5204630;28;20206;-57
2021/10/18 11:39:13;;;;;;;13.32;11.93;;;13.00;99.90;;;13.66;68.39;98743.81;5204468;28;20217;-54
2021/10/18 11:42:11;;;;;;;13.75;12.35;;;12.90;99.90;;;13.61;68.68;98743.53;5204521;28;20284;-55
2021/10/18 11:44:49;;;;;;;11.98;10.77;;;12.90;99.90;;;13.68;69.50;98737.97;5203579;28;20287;-56
2021/10/18 11:47:34;;;;;;;13.68;12.18;;;13.00;99.90;;;13.78;69.13;98735.94;5203233;28;20561;-54
2021/10/18 11:50:16;;;;;;;13.40;12.00;;;13.10;99.90;;;13.85;68.35;98731.25;5204118;28;20308;-55